sensor_id;sensor_type;location;lat;lon;timestamp;P1;durP1;ratioP1;P2;durP2;ratioP2
68273;SDS011;55104;47.356;19.448;2023-03-31T00:02:46;5.13;;;1.77;;
68273;SDS011;55104;47.356;19.448;2023-03-31T00:05:53;6.45;;;2.17;;
68273;SDS011;55104;47.356;19.448;2023-03-31T00:08:56;5.40;;;2.17;;
68273;SDS011;55104;47.356;19.448;2023-03-31T00:12:02;5.38;;;2.13;;
68273;SDS011;55104;47.356;19.448;2023-03-31T00:15:04;4.00;;;1.33;;
68273;SDS011;55104;47.356;19.448;2023-03-31T00:18:07;4.28;;;1.50;;
68273;SDS011;55104;47.356;19.448;2023-03-31T00:21:10;5.45;;;1.95;;
68273;SDS011;55104;47.356;19.448;2023-03-31T00:24:25;4.60;;;1.38;;
68273;SDS011;55104;47.356;19.448;2023-03-31T00:27:28;3.40;;;0.93;;
68273;SDS011;55104;47.356;19.448;2023-03-31T00:30:30;2.93;;;0.97;;
68273;SDS011;55104;47.356;19.448;2023-03-31T00:33:34;7.45;;;2.20;;
68273;SDS011;55104;47.356;19.448;2023-03-31T00:36:36;6.47;;;1.92;;
68273;SDS011;55104;47.356;19.448;2023-03-31T00:39:48;5.32;;;2.13;;
68273;SDS011;55104;47.356;19.448;2023-03-31T00:42:50;5.53;;;1.65;;
68273;SDS011;55104;47.356;19.448;2023-03-31T00:45:52;5.07;;;1.63;;
68273;SDS011;55104;47.356;19.448;2023-03-31T00:48:56;6.13;;;1.92;;
68273;SDS011;55104;47.356;19.448;2023-03-31T00:52:03;4.93;;;1.63;;
68273;SDS011;55104;47.356;19.448;2023-03-31T00:55:17;8.55;;;2.70;;
68273;SDS011;55104;47.356;19.448;2023-03-31T00:58:24;6.15;;;1.95;;
68273;SDS011;55104;47.356;19.448;2023-03-31T01:01:29;4.68;;;1.70;;
68273;SDS011;55104;47.356;19.448;2023-03-31T01:04:33;5.80;;;1.95;;
68273;SDS011;55104;47.356;19.448;2023-03-31T01:07:41;5.82;;;2.25;;
68273;SDS011;55104;47.356;19.448;2023-03-31T01:10:47;4.57;;;1.27;;
68273;SDS011;55104;47.356;19.448;2023-03-31T01:13:53;3.72;;;1.55;;
68273;SDS011;55104;47.356;19.448;2023-03-31T01:16:57;5.45;;;1.80;;
68273;SDS011;55104;47.356;19.448;2023-03-31T01:41:04;4.40;;;1.17;;
68273;SDS011;55104;47.356;19.448;2023-03-31T01:44:34;7.18;;;1.30;;
68273;SDS011;55104;47.356;19.448;2023-03-31T01:54:22;4.13;;;0.98;;
68273;SDS011;55104;47.356;19.448;2023-03-31T01:57:30;4.72;;;1.15;;
68273;SDS011;55104;47.356;19.448;2023-03-31T02:00:40;3.63;;;1.13;;
68273;SDS011;55104;47.356;19.448;2023-03-31T02:03:54;4.47;;;1.50;;
68273;SDS011;55104;47.356;19.448;2023-03-31T02:07:03;11.07;;;1.23;;
68273;SDS011;55104;47.356;19.448;2023-03-31T02:10:13;4.10;;;1.50;;
68273;SDS011;55104;47.356;19.448;2023-03-31T02:13:17;4.15;;;1.25;;
68273;SDS011;55104;47.356;19.448;2023-03-31T02:16:23;3.55;;;1.25;;
68273;SDS011;55104;47.356;19.448;2023-03-31T02:19:29;4.82;;;1.33;;
68273;SDS011;55104;47.356;19.448;2023-03-31T02:22:35;3.60;;;1.45;;
68273;SDS011;55104;47.356;19.448;2023-03-31T02:25:52;8.10;;;1.95;;
68273;SDS011;55104;47.356;19.448;2023-03-31T02:29:01;6.68;;;2.15;;
68273;SDS011;55104;47.356;19.448;2023-03-31T02:32:15;8.48;;;2.00;;
68273;SDS011;55104;47.356;19.448;2023-03-31T02:35:26;6.57;;;1.52;;
68273;SDS011;55104;47.356;19.448;2023-03-31T02:38:31;5.57;;;1.33;;
68273;SDS011;55104;47.356;19.448;2023-03-31T02:41:39;3.60;;;1.23;;
68273;SDS011;55104;47.356;19.448;2023-03-31T02:44:41;3.35;;;1.30;;
68273;SDS011;55104;47.356;19.448;2023-03-31T02:47:44;4.53;;;1.58;;
68273;SDS011;55104;47.356;19.448;2023-03-31T03:04:47;2.73;;;0.80;;
68273;SDS011;55104;47.356;19.448;2023-03-31T03:11:38;4.13;;;1.17;;
68273;SDS011;55104;47.356;19.448;2023-03-31T03:14:59;3.60;;;1.35;;
68273;SDS011;55104;47.356;19.448;2023-03-31T03:18:07;4.77;;;1.70;;
68273;SDS011;55104;47.356;19.448;2023-03-31T03:21:10;2.75;;;1.30;;
68273;SDS011;55104;47.356;19.448;2023-03-31T03:24:13;5.80;;;1.67;;
68273;SDS011;55104;47.356;19.448;2023-03-31T03:27:19;5.80;;;1.52;;
68273;SDS011;55104;47.356;19.448;2023-03-31T03:30:23;5.30;;;1.70;;
68273;SDS011;55104;47.356;19.448;2023-03-31T03:33:25;1.60;;;0.57;;
68273;SDS011;55104;47.356;19.448;2023-03-31T03:36:27;2.97;;;1.50;;
68273;SDS011;55104;47.356;19.448;2023-03-31T03:39:29;4.47;;;1.33;;
68273;SDS011;55104;47.356;19.448;2023-03-31T03:42:32;3.77;;;1.23;;
68273;SDS011;55104;47.356;19.448;2023-03-31T03:45:35;4.85;;;1.83;;
68273;SDS011;55104;47.356;19.448;2023-03-31T03:48:37;5.85;;;2.05;;
68273;SDS011;55104;47.356;19.448;2023-03-31T03:51:39;10.02;;;2.70;;
68273;SDS011;55104;47.356;19.448;2023-03-31T03:54:41;6.70;;;1.83;;
68273;SDS011;55104;47.356;19.448;2023-03-31T03:57:43;5.65;;;2.35;;
68273;SDS011;55104;47.356;19.448;2023-03-31T04:00:45;6.05;;;2.42;;
68273;SDS011;55104;47.356;19.448;2023-03-31T04:03:48;7.25;;;2.50;;
68273;SDS011;55104;47.356;19.448;2023-03-31T04:06:50;6.97;;;1.63;;
68273;SDS011;55104;47.356;19.448;2023-03-31T04:09:52;5.82;;;2.20;;
68273;SDS011;55104;47.356;19.448;2023-03-31T04:12:54;3.80;;;1.20;;
68273;SDS011;55104;47.356;19.448;2023-03-31T04:15:56;14.57;;;5.50;;
68273;SDS011;55104;47.356;19.448;2023-03-31T04:18:59;13.68;;;6.30;;
68273;SDS011;55104;47.356;19.448;2023-03-31T04:22:04;9.70;;;5.65;;
68273;SDS011;55104;47.356;19.448;2023-03-31T04:25:07;11.00;;;3.75;;
68273;SDS011;55104;47.356;19.448;2023-03-31T04:28:17;7.87;;;3.40;;
68273;SDS011;55104;47.356;19.448;2023-03-31T04:31:20;5.50;;;1.92;;
68273;SDS011;55104;47.356;19.448;2023-03-31T04:34:26;6.30;;;2.08;;
68273;SDS011;55104;47.356;19.448;2023-03-31T04:37:36;6.90;;;2.67;;
68273;SDS011;55104;47.356;19.448;2023-03-31T04:40:39;9.30;;;2.97;;
68273;SDS011;55104;47.356;19.448;2023-03-31T04:43:42;7.03;;;3.13;;
68273;SDS011;55104;47.356;19.448;2023-03-31T04:46:44;7.18;;;3.65;;
68273;SDS011;55104;47.356;19.448;2023-03-31T04:49:46;7.45;;;3.08;;
68273;SDS011;55104;47.356;19.448;2023-03-31T04:52:48;5.85;;;2.58;;
68273;SDS011;55104;47.356;19.448;2023-03-31T04:55:50;7.78;;;4.00;;
68273;SDS011;55104;47.356;19.448;2023-03-31T04:58:53;7.13;;;3.50;;
68273;SDS011;55104;47.356;19.448;2023-03-31T05:01:55;6.83;;;2.60;;
68273;SDS011;55104;47.356;19.448;2023-03-31T05:04:57;8.13;;;1.67;;
68273;SDS011;55104;47.356;19.448;2023-03-31T05:07:59;5.18;;;1.48;;
68273;SDS011;55104;47.356;19.448;2023-03-31T05:11:01;4.68;;;1.58;;
68273;SDS011;55104;47.356;19.448;2023-03-31T05:14:04;4.75;;;1.52;;
68273;SDS011;55104;47.356;19.448;2023-03-31T05:17:06;4.43;;;1.60;;
68273;SDS011;55104;47.356;19.448;2023-03-31T05:20:09;3.58;;;1.27;;
68273;SDS011;55104;47.356;19.448;2023-03-31T05:23:12;4.63;;;1.50;;
68273;SDS011;55104;47.356;19.448;2023-03-31T05:26:14;6.50;;;1.90;;
68273;SDS011;55104;47.356;19.448;2023-03-31T05:29:17;6.07;;;2.30;;
68273;SDS011;55104;47.356;19.448;2023-03-31T05:32:20;7.38;;;1.80;;
68273;SDS011;55104;47.356;19.448;2023-03-31T05:35:22;4.70;;;1.83;;
68273;SDS011;55104;47.356;19.448;2023-03-31T05:38:25;5.80;;;1.98;;
68273;SDS011;55104;47.356;19.448;2023-03-31T05:41:29;4.57;;;1.67;;
68273;SDS011;55104;47.356;19.448;2023-03-31T05:44:32;4.93;;;2.35;;
68273;SDS011;55104;47.356;19.448;2023-03-31T05:47:34;4.93;;;1.98;;
68273;SDS011;55104;47.356;19.448;2023-03-31T05:50:36;6.07;;;2.75;;
68273;SDS011;55104;47.356;19.448;2023-03-31T05:53:38;12.23;;;5.70;;
68273;SDS011;55104;47.356;19.448;2023-03-31T05:56:40;14.50;;;6.60;;
68273;SDS011;55104;47.356;19.448;2023-03-31T05:59:42;10.88;;;5.90;;
68273;SDS011;55104;47.356;19.448;2023-03-31T06:02:44;8.95;;;3.97;;
68273;SDS011;55104;47.356;19.448;2023-03-31T06:05:47;7.60;;;2.70;;
68273;SDS011;55104;47.356;19.448;2023-03-31T06:08:49;5.43;;;1.80;;
68273;SDS011;55104;47.356;19.448;2023-03-31T06:11:52;7.18;;;2.80;;
68273;SDS011;55104;47.356;19.448;2023-03-31T06:14:54;10.05;;;3.45;;
68273;SDS011;55104;47.356;19.448;2023-03-31T06:17:56;8.50;;;3.30;;
68273;SDS011;55104;47.356;19.448;2023-03-31T06:20:58;9.57;;;3.17;;
68273;SDS011;55104;47.356;19.448;2023-03-31T06:24:01;5.63;;;2.30;;
68273;SDS011;55104;47.356;19.448;2023-03-31T06:27:04;5.70;;;1.98;;
68273;SDS011;55104;47.356;19.448;2023-03-31T06:30:07;4.60;;;2.10;;
68273;SDS011;55104;47.356;19.448;2023-03-31T06:33:10;6.00;;;2.65;;
68273;SDS011;55104;47.356;19.448;2023-03-31T06:36:13;6.85;;;2.30;;
68273;SDS011;55104;47.356;19.448;2023-03-31T06:39:17;7.55;;;2.85;;
68273;SDS011;55104;47.356;19.448;2023-03-31T06:42:19;7.60;;;2.90;;
68273;SDS011;55104;47.356;19.448;2023-03-31T06:45:21;6.28;;;3.03;;
68273;SDS011;55104;47.356;19.448;2023-03-31T06:48:23;8.10;;;2.85;;
68273;SDS011;55104;47.356;19.448;2023-03-31T06:51:26;5.25;;;1.63;;
68273;SDS011;55104;47.356;19.448;2023-03-31T06:54:29;7.72;;;2.45;;
68273;SDS011;55104;47.356;19.448;2023-03-31T06:57:31;5.75;;;1.90;;
68273;SDS011;55104;47.356;19.448;2023-03-31T07:00:34;8.85;;;2.25;;
68273;SDS011;55104;47.356;19.448;2023-03-31T07:03:36;5.30;;;2.25;;
68273;SDS011;55104;47.356;19.448;2023-03-31T07:06:38;6.65;;;1.98;;
68273;SDS011;55104;47.356;19.448;2023-03-31T07:09:41;5.97;;;2.30;;
68273;SDS011;55104;47.356;19.448;2023-03-31T07:12:43;5.65;;;1.80;;
68273;SDS011;55104;47.356;19.448;2023-03-31T07:15:48;7.57;;;2.03;;
68273;SDS011;55104;47.356;19.448;2023-03-31T07:18:51;7.28;;;1.77;;
68273;SDS011;55104;47.356;19.448;2023-03-31T07:21:55;7.32;;;2.53;;
68273;SDS011;55104;47.356;19.448;2023-03-31T07:24:57;8.70;;;2.47;;
68273;SDS011;55104;47.356;19.448;2023-03-31T07:27:59;3.50;;;1.48;;
68273;SDS011;55104;47.356;19.448;2023-03-31T07:31:01;5.72;;;1.88;;
68273;SDS011;55104;47.356;19.448;2023-03-31T07:34:04;6.28;;;2.10;;
68273;SDS011;55104;47.356;19.448;2023-03-31T07:37:06;5.68;;;1.70;;
68273;SDS011;55104;47.356;19.448;2023-03-31T07:40:10;6.13;;;2.13;;
68273;SDS011;55104;47.356;19.448;2023-03-31T07:43:16;4.05;;;1.33;;
68273;SDS011;55104;47.356;19.448;2023-03-31T07:46:22;5.28;;;1.70;;
68273;SDS011;55104;47.356;19.448;2023-03-31T07:49:26;5.28;;;2.15;;
68273;SDS011;55104;47.356;19.448;2023-03-31T07:52:28;4.57;;;1.20;;
68273;SDS011;55104;47.356;19.448;2023-03-31T07:55:30;8.37;;;1.90;;
68273;SDS011;55104;47.356;19.448;2023-03-31T07:58:32;4.20;;;1.55;;
68273;SDS011;55104;47.356;19.448;2023-03-31T08:01:35;4.47;;;1.33;;
68273;SDS011;55104;47.356;19.448;2023-03-31T08:04:37;3.90;;;1.25;;
68273;SDS011;55104;47.356;19.448;2023-03-31T08:07:41;6.10;;;1.80;;
68273;SDS011;55104;47.356;19.448;2023-03-31T08:10:44;5.27;;;1.60;;
68273;SDS011;55104;47.356;19.448;2023-03-31T08:13:47;5.07;;;1.90;;
68273;SDS011;55104;47.356;19.448;2023-03-31T08:16:49;5.47;;;1.42;;
68273;SDS011;55104;47.356;19.448;2023-03-31T08:19:52;5.53;;;1.40;;
68273;SDS011;55104;47.356;19.448;2023-03-31T08:22:54;6.50;;;2.15;;
68273;SDS011;55104;47.356;19.448;2023-03-31T08:26:06;5.33;;;2.00;;
68273;SDS011;55104;47.356;19.448;2023-03-31T08:29:18;12.25;;;3.40;;
68273;SDS011;55104;47.356;19.448;2023-03-31T08:32:23;4.95;;;1.55;;
68273;SDS011;55104;47.356;19.448;2023-03-31T08:35:25;3.17;;;1.02;;
68273;SDS011;55104;47.356;19.448;2023-03-31T08:38:27;2.97;;;0.90;;
68273;SDS011;55104;47.356;19.448;2023-03-31T08:41:32;3.90;;;1.47;;
68273;SDS011;55104;47.356;19.448;2023-03-31T08:45:02;4.15;;;1.23;;
68273;SDS011;55104;47.356;19.448;2023-03-31T08:51:34;5.95;;;1.50;;
68273;SDS011;55104;47.356;19.448;2023-03-31T08:54:43;5.75;;;1.40;;
68273;SDS011;55104;47.356;19.448;2023-03-31T09:01:00;6.05;;;1.73;;
68273;SDS011;55104;47.356;19.448;2023-03-31T09:11:39;7.50;;;1.33;;
68273;SDS011;55104;47.356;19.448;2023-03-31T09:14:50;4.50;;;1.00;;
68273;SDS011;55104;47.356;19.448;2023-03-31T09:18:48;2.72;;;0.90;;
68273;SDS011;55104;47.356;19.448;2023-03-31T09:21:40;9.63;;;1.70;;
68273;SDS011;55104;47.356;19.448;2023-03-31T09:24:57;5.90;;;1.75;;
68273;SDS011;55104;47.356;19.448;2023-03-31T09:28:21;5.57;;;1.58;;
68273;SDS011;55104;47.356;19.448;2023-03-31T09:31:29;5.17;;;1.80;;
68273;SDS011;55104;47.356;19.448;2023-03-31T09:34:33;5.10;;;1.37;;
68273;SDS011;55104;47.356;19.448;2023-03-31T09:37:35;2.03;;;0.70;;
68273;SDS011;55104;47.356;19.448;2023-03-31T09:40:37;3.35;;;0.93;;
68273;SDS011;55104;47.356;19.448;2023-03-31T09:43:40;3.60;;;0.75;;
68273;SDS011;55104;47.356;19.448;2023-03-31T09:46:42;4.07;;;1.10;;
68273;SDS011;55104;47.356;19.448;2023-03-31T09:49:45;5.13;;;1.13;;
68273;SDS011;55104;47.356;19.448;2023-03-31T09:52:55;4.28;;;1.30;;
68273;SDS011;55104;47.356;19.448;2023-03-31T09:56:00;5.22;;;1.10;;
68273;SDS011;55104;47.356;19.448;2023-03-31T09:59:05;4.57;;;1.40;;
68273;SDS011;55104;47.356;19.448;2023-03-31T10:05:35;3.87;;;1.23;;
68273;SDS011;55104;47.356;19.448;2023-03-31T10:08:41;2.45;;;0.98;;
68273;SDS011;55104;47.356;19.448;2023-03-31T10:11:55;3.38;;;1.00;;
68273;SDS011;55104;47.356;19.448;2023-03-31T10:18:34;6.20;;;1.63;;
68273;SDS011;55104;47.356;19.448;2023-03-31T10:21:38;4.47;;;1.10;;
68273;SDS011;55104;47.356;19.448;2023-03-31T10:24:44;2.10;;;0.70;;
68273;SDS011;55104;47.356;19.448;2023-03-31T10:27:47;3.75;;;0.90;;
68273;SDS011;55104;47.356;19.448;2023-03-31T10:30:53;2.95;;;0.93;;
68273;SDS011;55104;47.356;19.448;2023-03-31T10:33:58;5.63;;;1.20;;
68273;SDS011;55104;47.356;19.448;2023-03-31T10:37:06;6.03;;;1.27;;
68273;SDS011;55104;47.356;19.448;2023-03-31T10:40:20;2.45;;;0.93;;
68273;SDS011;55104;47.356;19.448;2023-03-31T10:43:43;4.00;;;1.13;;
68273;SDS011;55104;47.356;19.448;2023-03-31T10:46:51;9.05;;;1.90;;
68273;SDS011;55104;47.356;19.448;2023-03-31T10:49:55;8.50;;;2.30;;
68273;SDS011;55104;47.356;19.448;2023-03-31T10:53:02;3.53;;;0.97;;
68273;SDS011;55104;47.356;19.448;2023-03-31T11:09:53;2.93;;;0.70;;
68273;SDS011;55104;47.356;19.448;2023-03-31T11:23:24;3.00;;;0.70;;
68273;SDS011;55104;47.356;19.448;2023-03-31T11:30:30;4.10;;;1.55;;
68273;SDS011;55104;47.356;19.448;2023-03-31T11:37:32;4.18;;;1.10;;
68273;SDS011;55104;47.356;19.448;2023-03-31T11:43:56;4.50;;;0.90;;
68273;SDS011;55104;47.356;19.448;2023-03-31T11:47:15;2.95;;;0.80;;
68273;SDS011;55104;47.356;19.448;2023-03-31T11:50:24;3.65;;;0.90;;
68273;SDS011;55104;47.356;19.448;2023-03-31T11:53:31;6.40;;;2.33;;
68273;SDS011;55104;47.356;19.448;2023-03-31T11:56:37;12.17;;;3.60;;
68273;SDS011;55104;47.356;19.448;2023-03-31T11:59:41;7.40;;;1.50;;
68273;SDS011;55104;47.356;19.448;2023-03-31T12:02:58;4.70;;;1.25;;
68273;SDS011;55104;47.356;19.448;2023-03-31T12:06:18;7.35;;;1.52;;
68273;SDS011;55104;47.356;19.448;2023-03-31T12:09:47;6.38;;;2.15;;
68273;SDS011;55104;47.356;19.448;2023-03-31T12:12:56;4.70;;;1.30;;
68273;SDS011;55104;47.356;19.448;2023-03-31T12:16:13;6.67;;;1.20;;
68273;SDS011;55104;47.356;19.448;2023-03-31T12:19:27;5.05;;;1.20;;
68273;SDS011;55104;47.356;19.448;2023-03-31T12:22:44;5.63;;;1.20;;
68273;SDS011;55104;47.356;19.448;2023-03-31T12:25:50;4.30;;;1.30;;
68273;SDS011;55104;47.356;19.448;2023-03-31T12:29:05;7.03;;;2.30;;
68273;SDS011;55104;47.356;19.448;2023-03-31T12:32:17;8.47;;;1.27;;
68273;SDS011;55104;47.356;19.448;2023-03-31T12:42:38;6.80;;;1.67;;
68273;SDS011;55104;47.356;19.448;2023-03-31T12:49:02;4.87;;;1.07;;
68273;SDS011;55104;47.356;19.448;2023-03-31T12:52:17;4.32;;;1.25;;
68273;SDS011;55104;47.356;19.448;2023-03-31T12:55:37;4.43;;;1.30;;
68273;SDS011;55104;47.356;19.448;2023-03-31T12:58:43;2.70;;;0.88;;
68273;SDS011;55104;47.356;19.448;2023-03-31T13:08:54;5.38;;;1.42;;
68273;SDS011;55104;47.356;19.448;2023-03-31T13:12:05;6.82;;;1.50;;
68273;SDS011;55104;47.356;19.448;2023-03-31T13:15:12;5.32;;;1.40;;
68273;SDS011;55104;47.356;19.448;2023-03-31T13:18:17;3.83;;;1.10;;
68273;SDS011;55104;47.356;19.448;2023-03-31T13:21:22;6.47;;;1.43;;
68273;SDS011;55104;47.356;19.448;2023-03-31T13:24:25;3.78;;;1.23;;
68273;SDS011;55104;47.356;19.448;2023-03-31T13:27:31;4.78;;;1.58;;
68273;SDS011;55104;47.356;19.448;2023-03-31T14:06:37;3.47;;;1.17;;
68273;SDS011;55104;47.356;19.448;2023-03-31T14:09:45;3.13;;;1.00;;
68273;SDS011;55104;47.356;19.448;2023-03-31T14:12:50;4.28;;;1.15;;
68273;SDS011;55104;47.356;19.448;2023-03-31T14:15:54;3.85;;;1.25;;
68273;SDS011;55104;47.356;19.448;2023-03-31T14:19:05;5.47;;;1.70;;
68273;SDS011;55104;47.356;19.448;2023-03-31T14:22:52;6.63;;;1.83;;
68273;SDS011;55104;47.356;19.448;2023-03-31T14:26:18;8.10;;;1.30;;
68273;SDS011;55104;47.356;19.448;2023-03-31T14:39:15;15.10;;;4.63;;
68273;SDS011;55104;47.356;19.448;2023-03-31T14:42:23;4.03;;;1.03;;
68273;SDS011;55104;47.356;19.448;2023-03-31T14:45:29;5.40;;;1.48;;
68273;SDS011;55104;47.356;19.448;2023-03-31T14:48:54;4.47;;;1.23;;
68273;SDS011;55104;47.356;19.448;2023-03-31T14:51:58;5.65;;;1.10;;
68273;SDS011;55104;47.356;19.448;2023-03-31T14:55:02;3.37;;;1.17;;
68273;SDS011;55104;47.356;19.448;2023-03-31T14:58:04;4.07;;;1.00;;
68273;SDS011;55104;47.356;19.448;2023-03-31T15:01:07;5.43;;;0.88;;
68273;SDS011;55104;47.356;19.448;2023-03-31T15:04:11;4.57;;;1.50;;
68273;SDS011;55104;47.356;19.448;2023-03-31T15:07:16;7.63;;;1.40;;
68273;SDS011;55104;47.356;19.448;2023-03-31T15:10:19;5.23;;;1.07;;
68273;SDS011;55104;47.356;19.448;2023-03-31T15:13:27;3.30;;;0.73;;
68273;SDS011;55104;47.356;19.448;2023-03-31T15:16:36;6.32;;;2.50;;
68273;SDS011;55104;47.356;19.448;2023-03-31T15:19:45;4.38;;;1.38;;
68273;SDS011;55104;47.356;19.448;2023-03-31T15:22:47;6.40;;;2.00;;
68273;SDS011;55104;47.356;19.448;2023-03-31T15:26:04;9.30;;;2.50;;
68273;SDS011;55104;47.356;19.448;2023-03-31T15:29:12;5.93;;;1.80;;
68273;SDS011;55104;47.356;19.448;2023-03-31T15:32:27;11.55;;;2.92;;
68273;SDS011;55104;47.356;19.448;2023-03-31T15:35:32;9.38;;;3.22;;
68273;SDS011;55104;47.356;19.448;2023-03-31T15:38:37;8.95;;;2.58;;
68273;SDS011;55104;47.356;19.448;2023-03-31T15:41:39;6.03;;;1.63;;
68273;SDS011;55104;47.356;19.448;2023-03-31T15:44:44;8.67;;;2.47;;
68273;SDS011;55104;47.356;19.448;2023-03-31T15:47:51;11.80;;;2.22;;
68273;SDS011;55104;47.356;19.448;2023-03-31T15:50:58;2.97;;;0.90;;
68273;SDS011;55104;47.356;19.448;2023-03-31T15:57:40;4.93;;;1.60;;
68273;SDS011;55104;47.356;19.448;2023-03-31T16:00:51;4.63;;;1.47;;
68273;SDS011;55104;47.356;19.448;2023-03-31T16:03:55;6.45;;;1.58;;
68273;SDS011;55104;47.356;19.448;2023-03-31T16:07:08;12.77;;;3.28;;
68273;SDS011;55104;47.356;19.448;2023-03-31T16:10:32;6.95;;;1.90;;
68273;SDS011;55104;47.356;19.448;2023-03-31T16:13:36;6.50;;;1.53;;
68273;SDS011;55104;47.356;19.448;2023-03-31T16:16:45;4.87;;;0.90;;
68273;SDS011;55104;47.356;19.448;2023-03-31T16:19:54;8.55;;;2.00;;
68273;SDS011;55104;47.356;19.448;2023-03-31T16:23:00;5.95;;;1.73;;
68273;SDS011;55104;47.356;19.448;2023-03-31T16:26:04;5.10;;;1.50;;
68273;SDS011;55104;47.356;19.448;2023-03-31T16:29:07;12.73;;;2.20;;
68273;SDS011;55104;47.356;19.448;2023-03-31T16:32:11;11.20;;;2.60;;
68273;SDS011;55104;47.356;19.448;2023-03-31T16:35:15;5.72;;;1.83;;
68273;SDS011;55104;47.356;19.448;2023-03-31T16:38:17;5.55;;;1.60;;
68273;SDS011;55104;47.356;19.448;2023-03-31T16:41:23;5.80;;;2.25;;
68273;SDS011;55104;47.356;19.448;2023-03-31T16:44:27;6.70;;;2.03;;
68273;SDS011;55104;47.356;19.448;2023-03-31T16:47:30;7.03;;;1.67;;
68273;SDS011;55104;47.356;19.448;2023-03-31T16:50:36;5.97;;;2.20;;
68273;SDS011;55104;47.356;19.448;2023-03-31T16:53:39;4.88;;;1.63;;
68273;SDS011;55104;47.356;19.448;2023-03-31T16:56:41;9.00;;;1.90;;
68273;SDS011;55104;47.356;19.448;2023-03-31T16:59:43;9.47;;;2.37;;
68273;SDS011;55104;47.356;19.448;2023-03-31T17:02:45;4.47;;;1.25;;
68273;SDS011;55104;47.356;19.448;2023-03-31T17:05:52;5.28;;;1.33;;
68273;SDS011;55104;47.356;19.448;2023-03-31T17:08:58;4.80;;;1.40;;
68273;SDS011;55104;47.356;19.448;2023-03-31T17:12:01;4.95;;;1.17;;
68273;SDS011;55104;47.356;19.448;2023-03-31T17:15:04;4.30;;;1.10;;
68273;SDS011;55104;47.356;19.448;2023-03-31T17:18:06;8.10;;;1.80;;
68273;SDS011;55104;47.356;19.448;2023-03-31T17:21:09;9.43;;;2.17;;
68273;SDS011;55104;47.356;19.448;2023-03-31T17:24:14;6.05;;;1.60;;
68273;SDS011;55104;47.356;19.448;2023-03-31T17:27:17;6.15;;;1.92;;
68273;SDS011;55104;47.356;19.448;2023-03-31T17:30:19;6.03;;;2.03;;
68273;SDS011;55104;47.356;19.448;2023-03-31T17:33:22;5.57;;;1.53;;
68273;SDS011;55104;47.356;19.448;2023-03-31T17:36:24;8.43;;;2.08;;
68273;SDS011;55104;47.356;19.448;2023-03-31T17:39:27;8.20;;;3.55;;
68273;SDS011;55104;47.356;19.448;2023-03-31T17:42:29;5.03;;;1.42;;
68273;SDS011;55104;47.356;19.448;2023-03-31T17:45:32;4.67;;;1.40;;
68273;SDS011;55104;47.356;19.448;2023-03-31T17:48:34;8.30;;;1.25;;
68273;SDS011;55104;47.356;19.448;2023-03-31T17:51:38;3.70;;;0.88;;
68273;SDS011;55104;47.356;19.448;2023-03-31T17:54:41;3.95;;;1.40;;
68273;SDS011;55104;47.356;19.448;2023-03-31T17:57:43;3.10;;;0.90;;
68273;SDS011;55104;47.356;19.448;2023-03-31T18:00:46;4.00;;;1.23;;
68273;SDS011;55104;47.356;19.448;2023-03-31T18:03:48;7.88;;;2.25;;
68273;SDS011;55104;47.356;19.448;2023-03-31T18:06:50;4.90;;;1.30;;
68273;SDS011;55104;47.356;19.448;2023-03-31T18:09:53;7.28;;;1.77;;
68273;SDS011;55104;47.356;19.448;2023-03-31T18:12:55;8.60;;;2.50;;
68273;SDS011;55104;47.356;19.448;2023-03-31T18:15:59;7.57;;;2.13;;
68273;SDS011;55104;47.356;19.448;2023-03-31T18:19:02;8.85;;;2.70;;
68273;SDS011;55104;47.356;19.448;2023-03-31T18:22:04;7.20;;;2.25;;
68273;SDS011;55104;47.356;19.448;2023-03-31T18:25:06;8.80;;;2.47;;
68273;SDS011;55104;47.356;19.448;2023-03-31T18:28:09;5.07;;;1.55;;
68273;SDS011;55104;47.356;19.448;2023-03-31T18:31:12;6.27;;;1.53;;
68273;SDS011;55104;47.356;19.448;2023-03-31T18:34:15;6.93;;;2.33;;
68273;SDS011;55104;47.356;19.448;2023-03-31T18:37:17;5.70;;;1.83;;
68273;SDS011;55104;47.356;19.448;2023-03-31T18:40:19;12.50;;;2.92;;
68273;SDS011;55104;47.356;19.448;2023-03-31T18:43:22;10.82;;;1.75;;
68273;SDS011;55104;47.356;19.448;2023-03-31T18:46:25;12.87;;;2.90;;
68273;SDS011;55104;47.356;19.448;2023-03-31T18:49:28;19.95;;;4.22;;
68273;SDS011;55104;47.356;19.448;2023-03-31T18:52:30;12.48;;;2.88;;
68273;SDS011;55104;47.356;19.448;2023-03-31T18:55:32;13.35;;;3.20;;
68273;SDS011;55104;47.356;19.448;2023-03-31T18:58:35;11.23;;;3.15;;
68273;SDS011;55104;47.356;19.448;2023-03-31T19:01:38;9.73;;;1.77;;
68273;SDS011;55104;47.356;19.448;2023-03-31T19:04:40;4.50;;;1.45;;
68273;SDS011;55104;47.356;19.448;2023-03-31T19:07:42;5.82;;;1.30;;
68273;SDS011;55104;47.356;19.448;2023-03-31T19:10:45;4.57;;;1.40;;
68273;SDS011;55104;47.356;19.448;2023-03-31T19:13:47;8.85;;;2.25;;
68273;SDS011;55104;47.356;19.448;2023-03-31T19:16:50;6.03;;;2.23;;
68273;SDS011;55104;47.356;19.448;2023-03-31T19:19:52;8.57;;;2.03;;
68273;SDS011;55104;47.356;19.448;2023-03-31T19:22:55;11.30;;;3.72;;
68273;SDS011;55104;47.356;19.448;2023-03-31T19:25:57;6.75;;;2.45;;
68273;SDS011;55104;47.356;19.448;2023-03-31T19:29:01;5.22;;;1.77;;
68273;SDS011;55104;47.356;19.448;2023-03-31T19:32:04;6.90;;;1.63;;
68273;SDS011;55104;47.356;19.448;2023-03-31T19:35:07;4.10;;;1.30;;
68273;SDS011;55104;47.356;19.448;2023-03-31T19:38:09;2.90;;;0.90;;
68273;SDS011;55104;47.356;19.448;2023-03-31T19:41:12;4.60;;;0.90;;
68273;SDS011;55104;47.356;19.448;2023-03-31T19:44:14;1.90;;;0.55;;
68273;SDS011;55104;47.356;19.448;2023-03-31T19:47:16;2.27;;;0.70;;
68273;SDS011;55104;47.356;19.448;2023-03-31T19:50:19;3.22;;;1.10;;
68273;SDS011;55104;47.356;19.448;2023-03-31T19:53:21;3.03;;;0.88;;
68273;SDS011;55104;47.356;19.448;2023-03-31T19:56:24;2.88;;;0.73;;
68273;SDS011;55104;47.356;19.448;2023-03-31T19:59:27;2.70;;;1.20;;
68273;SDS011;55104;47.356;19.448;2023-03-31T20:02:29;5.10;;;1.27;;
68273;SDS011;55104;47.356;19.448;2023-03-31T20:05:32;5.95;;;2.03;;
68273;SDS011;55104;47.356;19.448;2023-03-31T20:08:35;3.28;;;1.20;;
68273;SDS011;55104;47.356;19.448;2023-03-31T20:11:38;4.05;;;1.08;;
68273;SDS011;55104;47.356;19.448;2023-03-31T20:14:41;5.80;;;1.73;;
68273;SDS011;55104;47.356;19.448;2023-03-31T20:17:44;4.57;;;1.27;;
68273;SDS011;55104;47.356;19.448;2023-03-31T20:20:47;2.80;;;1.05;;
68273;SDS011;55104;47.356;19.448;2023-03-31T20:23:49;4.22;;;1.33;;
68273;SDS011;55104;47.356;19.448;2023-03-31T20:26:51;1.83;;;0.57;;
68273;SDS011;55104;47.356;19.448;2023-03-31T20:29:54;2.13;;;0.38;;
68273;SDS011;55104;47.356;19.448;2023-03-31T20:32:57;1.67;;;0.47;;
68273;SDS011;55104;47.356;19.448;2023-03-31T20:36:03;2.88;;;0.95;;
68273;SDS011;55104;47.356;19.448;2023-03-31T20:39:10;1.60;;;0.60;;
68273;SDS011;55104;47.356;19.448;2023-03-31T20:42:14;0.63;;;0.20;;
68273;SDS011;55104;47.356;19.448;2023-03-31T20:45:17;3.65;;;0.52;;
68273;SDS011;55104;47.356;19.448;2023-03-31T20:48:19;2.03;;;0.63;;
68273;SDS011;55104;47.356;19.448;2023-03-31T20:51:22;0.55;;;0.20;;
68273;SDS011;55104;47.356;19.448;2023-03-31T20:54:27;0.47;;;0.20;;
68273;SDS011;55104;47.356;19.448;2023-03-31T20:57:29;2.03;;;0.80;;
68273;SDS011;55104;47.356;19.448;2023-03-31T21:00:31;1.30;;;0.47;;
68273;SDS011;55104;47.356;19.448;2023-03-31T21:03:33;1.00;;;0.30;;
68273;SDS011;55104;47.356;19.448;2023-03-31T21:06:36;1.13;;;0.30;;
68273;SDS011;55104;47.356;19.448;2023-03-31T21:09:40;1.02;;;0.30;;